createdAt,value
2018-08-24T00:01:35.549Z,20.80
2018-08-24T00:04:08.273Z,20.80
2018-08-24T00:06:38.077Z,20.75
2018-08-24T00:09:12.576Z,20.74
2018-08-24T00:11:41.354Z,20.73
2018-08-24T00:14:10.997Z,20.62
2018-08-24T00:16:40.779Z,20.52
2018-08-24T00:19:15.432Z,20.42
2018-08-24T00:21:44.617Z,20.33
2018-08-24T00:24:13.888Z,20.30
2018-08-24T00:26:42.448Z,20.45
2018-08-24T00:29:11.420Z,20.58
2018-08-24T00:31:40.486Z,20.62
2018-08-24T00:34:09.043Z,20.61
2018-08-24T00:36:37.655Z,20.58
2018-08-24T00:39:08.108Z,20.55
2018-08-24T00:41:36.950Z,20.57
2018-08-24T00:44:05.589Z,20.51
2018-08-24T00:46:34.160Z,20.52
2018-08-24T00:49:02.893Z,20.61
2018-08-24T00:51:31.503Z,20.65
2018-08-24T00:54:00.064Z,20.64
2018-08-24T00:56:28.823Z,20.68
2018-08-24T00:58:57.375Z,20.59
2018-08-24T01:01:26.059Z,20.59
2018-08-24T01:03:54.603Z,20.57
2018-08-24T01:06:23.132Z,20.47
2018-08-24T01:08:51.825Z,20.42
2018-08-24T01:11:20.472Z,20.38
2018-08-24T01:13:51.651Z,20.33
2018-08-24T01:16:25.668Z,20.26
2018-08-24T01:18:54.269Z,20.27
2018-08-24T01:21:22.839Z,20.19
2018-08-24T01:23:51.676Z,20.11
2018-08-24T01:26:22.819Z,20.12
2018-08-24T01:28:52.806Z,20.08
2018-08-24T01:31:22.293Z,20.16
2018-08-24T01:33:50.839Z,20.21
2018-08-24T01:36:19.409Z,20.14
2018-08-24T01:38:47.976Z,20.11
2018-08-24T01:41:16.552Z,20.11
2018-08-24T01:43:45.120Z,20.14
2018-08-24T01:46:15.047Z,20.11
2018-08-24T01:48:43.660Z,19.95
2018-08-24T01:51:12.263Z,19.83
2018-08-24T01:53:40.988Z,19.82
2018-08-24T01:56:09.572Z,19.79
2018-08-24T01:58:38.129Z,19.80
2018-08-24T02:01:06.703Z,19.85
2018-08-24T02:03:35.484Z,19.95
2018-08-24T02:06:08.080Z,19.96
2018-08-24T02:08:37.732Z,19.88
2018-08-24T02:11:10.899Z,19.72
2018-08-24T02:13:45.913Z,19.63
2018-08-24T02:16:14.600Z,19.69
2018-08-24T02:18:48.275Z,19.75
2018-08-24T02:21:21.928Z,19.69
2018-08-24T02:23:50.464Z,19.70
2018-08-24T02:26:18.999Z,19.65
2018-08-24T02:28:47.551Z,19.55
2018-08-24T02:31:16.159Z,19.44
2018-08-24T02:33:44.673Z,19.41
2018-08-24T02:36:13.413Z,19.46
2018-08-24T02:38:41.940Z,19.43
2018-08-24T02:41:10.507Z,19.47
2018-08-24T02:43:39.045Z,19.54
2018-08-24T02:46:07.666Z,19.58
2018-08-24T02:48:36.209Z,19.62
2018-08-24T02:51:04.872Z,19.62
2018-08-24T02:53:33.481Z,19.61
2018-08-24T02:56:02.185Z,19.53
2018-08-24T02:58:30.716Z,19.49
2018-08-24T03:00:59.335Z,19.48
2018-08-24T03:03:27.892Z,19.46
2018-08-24T03:05:56.443Z,19.39
2018-08-24T03:08:25.090Z,19.36
2018-08-24T03:10:53.550Z,19.36
2018-08-24T03:13:22.157Z,19.34
2018-08-24T03:15:50.692Z,19.30
2018-08-24T03:18:19.244Z,19.19
2018-08-24T03:20:47.828Z,19.14
2018-08-24T03:23:16.459Z,19.18
2018-08-24T03:25:44.993Z,19.13
2018-08-24T03:28:13.542Z,19.07
2018-08-24T03:30:42.230Z,19.01
2018-08-24T03:33:10.812Z,18.94
2018-08-24T03:35:42.428Z,18.91
2018-08-24T03:38:11.051Z,18.82
2018-08-24T03:40:39.584Z,18.72
2018-08-24T03:43:08.140Z,18.65
2018-08-24T03:45:36.959Z,18.60
2018-08-24T03:48:06.383Z,18.59
2018-08-24T03:50:35.253Z,18.66
2018-08-24T03:53:04.693Z,18.71
2018-08-24T03:55:37.280Z,18.73
2018-08-24T03:58:07.265Z,18.64
2018-08-24T04:00:37.781Z,18.61
2018-08-24T04:03:06.351Z,18.61
2018-08-24T04:05:34.905Z,18.62
2018-08-24T04:08:03.463Z,18.62
2018-08-24T04:10:32.026Z,18.60
2018-08-24T04:13:00.619Z,18.68
2018-08-24T04:15:29.368Z,18.68
2018-08-24T04:17:57.917Z,18.65
2018-08-24T04:20:26.458Z,18.67
2018-08-24T04:22:55.042Z,18.61
2018-08-24T04:25:23.608Z,18.56
2018-08-24T04:27:52.152Z,18.47
2018-08-24T04:30:20.692Z,18.47
2018-08-24T04:32:49.256Z,18.59
2018-08-24T04:35:17.817Z,18.75
2018-08-24T04:37:46.403Z,18.86
2018-08-24T04:40:15.000Z,18.97
2018-08-24T04:42:43.562Z,19.09
2018-08-24T04:45:12.161Z,19.13
2018-08-24T04:47:40.700Z,19.18
2018-08-24T04:50:09.249Z,19.15
2018-08-24T04:52:37.896Z,19.04
2018-08-24T04:55:06.455Z,19.10
2018-08-24T04:57:34.990Z,19.18
2018-08-24T05:00:03.585Z,19.28
2018-08-24T05:02:32.119Z,19.34
2018-08-24T05:05:00.688Z,19.39
2018-08-24T05:07:29.210Z,19.34
2018-08-24T05:09:57.767Z,19.38
2018-08-24T05:13:00.928Z,19.43
2018-08-24T05:15:29.489Z,19.35
2018-08-24T05:17:58.087Z,19.35
2018-08-24T05:20:26.634Z,19.43
2018-08-24T05:22:55.178Z,19.53
2018-08-24T05:25:23.751Z,19.63
2018-08-24T05:27:52.284Z,19.71
2018-08-24T05:30:20.834Z,19.81
2018-08-24T05:32:50.210Z,19.90
2018-08-24T05:42:04.844Z,19.90
2018-08-24T05:48:05.825Z,19.64
2018-08-24T05:55:03.124Z,19.77
2018-08-24T05:57:31.673Z,19.97
2018-08-24T06:04:02.539Z,20.16
2018-08-24T06:06:31.127Z,20.29
2018-08-24T06:09:04.891Z,20.52
2018-08-24T06:11:33.421Z,20.72
2018-08-24T06:14:01.986Z,20.91
2018-08-24T06:16:30.556Z,21.04
2018-08-24T06:18:59.129Z,21.22
2018-08-24T06:21:27.676Z,21.31
2018-08-24T06:23:56.220Z,21.31
2018-08-24T06:26:24.809Z,21.33
2018-08-24T06:28:53.349Z,21.37
2018-08-24T06:31:21.900Z,21.27
2018-08-24T06:33:50.473Z,21.18
2018-08-24T06:36:19.052Z,21.15
2018-08-24T06:38:47.636Z,21.16
2018-08-24T06:41:16.208Z,21.16
2018-08-24T06:43:44.748Z,21.11
2018-08-24T06:46:13.311Z,21.09
2018-08-24T06:48:41.848Z,21.06
2018-08-24T06:51:10.400Z,21.02
2018-08-24T06:53:38.990Z,21.04
2018-08-24T06:56:07.525Z,21.03
2018-08-24T06:58:36.076Z,20.91
2018-08-24T07:01:04.652Z,20.93
2018-08-24T07:03:33.262Z,20.88
2018-08-24T07:06:01.864Z,20.82
2018-08-24T07:08:30.452Z,20.86
2018-08-24T07:10:58.991Z,20.87
2018-08-24T07:13:27.610Z,20.90
2018-08-24T07:15:56.140Z,20.97
2018-08-24T07:21:27.141Z,21.11
2018-08-24T07:23:55.676Z,21.20
2018-08-24T07:26:24.232Z,21.17
2018-08-24T07:28:52.797Z,21.28
2018-08-24T07:31:21.340Z,21.40
2018-08-24T07:33:49.915Z,21.54
2018-08-24T07:36:18.464Z,21.65
2018-08-24T07:38:47.065Z,21.72
2018-08-24T07:41:15.699Z,21.75
2018-08-24T07:43:44.267Z,21.85
2018-08-24T07:46:12.832Z,22.00
2018-08-24T07:48:41.361Z,22.12
2018-08-24T07:51:09.905Z,22.23
2018-08-24T07:53:38.455Z,22.35
2018-08-24T08:01:19.323Z,22.42
2018-08-24T08:03:47.928Z,22.57
2018-08-24T08:06:16.480Z,22.73
2018-08-24T08:08:45.040Z,22.96
2018-08-24T08:11:13.594Z,23.16
2018-08-24T08:13:42.152Z,23.37
2018-08-24T08:16:10.687Z,23.49
2018-08-24T08:18:39.421Z,23.60
2018-08-24T08:21:08.091Z,23.63
2018-08-24T08:23:36.910Z,23.70
2018-08-24T08:26:08.113Z,23.83
2018-08-24T08:28:36.767Z,23.90
2018-08-24T08:31:05.362Z,23.79
2018-08-24T08:33:33.906Z,23.93
2018-08-24T08:36:02.596Z,23.87
2018-08-24T08:38:31.144Z,23.97
2018-08-24T08:40:59.703Z,24.00
2018-08-24T08:43:28.273Z,24.13
2018-08-24T08:45:56.837Z,24.11
2018-08-24T08:48:25.367Z,24.24
2018-08-24T08:50:53.928Z,24.31
2018-08-24T08:53:22.508Z,24.24
2018-08-24T08:55:51.053Z,24.26
2018-08-24T08:58:19.596Z,24.42
2018-08-24T09:00:48.148Z,23.94
2018-08-24T09:03:16.663Z,24.17
2018-08-24T09:05:45.240Z,24.28
2018-08-24T09:08:13.764Z,24.28
2018-08-24T09:10:42.301Z,23.80
2018-08-24T09:13:10.850Z,23.76
2018-08-24T09:15:39.460Z,23.76
2018-08-24T09:18:13.088Z,24.02
2018-08-24T09:20:46.840Z,23.93
2018-08-24T09:23:20.536Z,24.04
2018-08-24T09:25:54.349Z,24.10
2018-08-24T09:28:27.970Z,24.03
2018-08-24T09:31:01.565Z,24.04
2018-08-24T09:33:30.085Z,23.73
2018-08-24T09:36:02.225Z,23.69
2018-08-24T09:38:32.800Z,23.80
2018-08-24T09:41:01.487Z,23.70
2018-08-24T09:43:35.274Z,23.64
2018-08-24T09:46:03.866Z,23.50
2018-08-24T09:48:36.543Z,23.67
2018-08-24T09:51:10.408Z,23.80
2018-08-24T09:53:44.151Z,23.99
2018-08-24T09:56:12.766Z,24.07
2018-08-24T09:58:41.352Z,23.91
2018-08-24T10:01:15.070Z,24.11
2018-08-24T10:03:48.645Z,24.13
2018-08-24T10:06:24.237Z,24.18
2018-08-24T10:08:52.790Z,24.22
2018-08-24T10:11:21.341Z,24.29
2018-08-24T10:13:49.876Z,24.23
2018-08-24T10:16:18.402Z,24.27
2018-08-24T10:18:47.011Z,23.96
2018-08-24T10:21:15.808Z,24.08
2018-08-24T10:23:44.365Z,24.19
2018-08-24T10:26:12.904Z,24.26
2018-08-24T10:28:41.452Z,24.21
2018-08-24T10:31:10.047Z,24.13
2018-08-24T10:33:38.803Z,24.03
2018-08-24T10:36:07.406Z,24.15
2018-08-24T10:38:36.342Z,24.29
2018-08-24T10:41:04.982Z,24.48
2018-08-24T10:43:33.560Z,24.60
2018-08-24T10:46:02.115Z,24.59
2018-08-24T10:48:30.646Z,24.42
2018-08-24T10:50:59.235Z,24.49
2018-08-24T10:53:27.818Z,24.21
2018-08-24T10:55:56.436Z,24.16
2018-08-24T10:58:24.945Z,24.32
2018-08-24T11:00:53.493Z,24.13
2018-08-24T11:03:22.213Z,24.26
2018-08-24T11:05:50.763Z,24.36
2018-08-24T11:08:19.365Z,24.37
2018-08-24T11:10:47.898Z,24.44
2018-08-24T11:13:16.473Z,24.47
2018-08-24T11:15:49.048Z,24.41
2018-08-24T11:18:18.083Z,24.54
2018-08-24T11:20:46.668Z,24.52
2018-08-24T11:23:15.252Z,24.65
2018-08-24T11:25:43.856Z,24.84
2018-08-24T11:28:12.459Z,24.87
2018-08-24T11:30:41.009Z,24.52
2018-08-24T11:33:09.661Z,24.51
2018-08-24T11:35:38.244Z,24.49
2018-08-24T11:38:06.840Z,24.43
2018-08-24T11:40:35.409Z,24.64
2018-08-24T11:43:04.018Z,24.75
2018-08-24T11:45:32.580Z,24.94
2018-08-24T11:48:01.184Z,24.96
2018-08-24T11:50:29.790Z,25.07
2018-08-24T11:52:58.343Z,25.05
2018-08-24T11:55:26.928Z,25.22
2018-08-24T11:57:55.520Z,25.21
2018-08-24T12:00:30.348Z,25.44
2018-08-24T12:03:00.187Z,25.43
2018-08-24T12:05:28.752Z,25.57
2018-08-24T12:07:57.469Z,25.81
2018-08-24T12:10:25.973Z,25.97
2018-08-24T12:12:54.539Z,25.72
2018-08-24T12:15:23.121Z,25.84
2018-08-24T12:17:51.747Z,26.03
2018-08-24T12:20:20.283Z,25.78
2018-08-24T12:22:48.904Z,25.85
2018-08-24T12:25:17.478Z,25.81
2018-08-24T12:27:46.027Z,25.75
2018-08-24T12:30:14.600Z,25.65
2018-08-24T12:32:43.175Z,25.68
2018-08-24T12:35:11.762Z,25.62
2018-08-24T12:37:48.245Z,25.80
2018-08-24T12:40:17.167Z,25.92
2018-08-24T12:42:45.883Z,26.00
2018-08-24T12:45:14.449Z,26.07
2018-08-24T12:47:43.045Z,26.15
2018-08-24T12:50:11.648Z,26.30
2018-08-24T12:52:40.248Z,26.50
2018-08-24T12:55:08.808Z,26.51
2018-08-24T12:57:37.414Z,26.66
2018-08-24T13:00:06.013Z,26.71
2018-08-24T13:02:34.557Z,26.83
2018-08-24T13:05:03.137Z,26.79
2018-08-24T13:07:32.595Z,26.58
2018-08-24T13:10:01.174Z,26.53
2018-08-24T13:12:29.719Z,27.11
2018-08-24T13:14:59.144Z,27.42
2018-08-24T13:17:27.708Z,27.65
2018-08-24T13:19:56.259Z,27.65
2018-08-24T13:22:24.824Z,27.71
2018-08-24T13:24:53.537Z,27.24
2018-08-24T13:27:22.192Z,27.43
2018-08-24T13:29:50.796Z,27.31
2018-08-24T13:32:19.343Z,27.27
2018-08-24T13:34:47.880Z,27.17
2018-08-24T13:37:16.460Z,26.92
2018-08-24T13:39:45.042Z,26.80
2018-08-24T13:42:13.654Z,26.84
2018-08-24T13:44:42.243Z,26.70
2018-08-24T13:47:10.842Z,26.57
2018-08-24T13:49:39.400Z,26.49
2018-08-24T13:52:11.002Z,26.56
2018-08-24T13:54:39.631Z,26.63
2018-08-24T13:57:08.206Z,26.68
2018-08-24T13:59:36.832Z,26.45
2018-08-24T14:02:05.516Z,26.40
2018-08-24T14:04:34.173Z,26.42
2018-08-24T14:07:02.748Z,26.51
2018-08-24T14:09:31.317Z,26.45
2018-08-24T14:11:59.869Z,26.45
2018-08-24T14:14:28.598Z,26.39
2018-08-24T14:16:57.158Z,26.46
2018-08-24T14:19:25.804Z,26.49
2018-08-24T14:21:54.423Z,26.49
2018-08-24T14:24:22.981Z,26.50
2018-08-24T14:26:51.560Z,26.41
2018-08-24T14:29:20.239Z,26.40
2018-08-24T14:31:48.920Z,26.49
2018-08-24T14:34:17.510Z,26.46
2018-08-24T14:36:46.113Z,26.43
2018-08-24T14:39:14.688Z,26.45
2018-08-24T14:41:43.355Z,26.51
2018-08-24T14:44:11.965Z,26.44
2018-08-24T14:46:40.772Z,26.35
2018-08-24T14:49:09.317Z,26.37
2018-08-24T14:51:37.872Z,26.29
2018-08-24T14:54:06.565Z,26.34
2018-08-24T14:56:35.273Z,26.05
2018-08-24T14:59:03.857Z,25.96
2018-08-24T15:01:32.467Z,26.04
2018-08-24T15:04:01.006Z,25.95
2018-08-24T15:06:29.567Z,25.66
2018-08-24T15:08:58.140Z,25.46
2018-08-24T15:11:26.683Z,25.50
2018-08-24T15:13:55.234Z,25.62
2018-08-24T15:16:23.822Z,25.73
2018-08-24T15:18:52.373Z,25.90
2018-08-24T15:21:20.914Z,25.72
2018-08-24T15:23:49.481Z,25.72
2018-08-24T15:26:18.073Z,25.55
2018-08-24T15:28:46.709Z,25.57
2018-08-24T15:31:16.143Z,25.42
2018-08-24T15:33:45.545Z,25.37
2018-08-24T15:36:14.093Z,25.44
2018-08-24T15:38:42.652Z,25.47
2018-08-24T15:41:11.208Z,25.47
2018-08-24T15:43:39.767Z,25.35
2018-08-24T15:46:08.449Z,25.31
2018-08-24T15:48:36.980Z,25.37
2018-08-24T15:51:05.876Z,25.24
2018-08-24T15:53:34.463Z,25.18
2018-08-24T15:56:03.056Z,25.23
2018-08-24T15:58:31.628Z,25.22
2018-08-24T16:01:00.198Z,25.29
2018-08-24T16:03:28.801Z,25.39
2018-08-24T16:05:57.507Z,25.25
2018-08-24T16:08:26.111Z,25.21
2018-08-24T16:10:54.696Z,25.30
2018-08-24T16:13:23.313Z,25.24
2018-08-24T16:15:51.869Z,25.26
2018-08-24T16:21:23.036Z,25.20
2018-08-24T16:23:51.716Z,25.14
2018-08-24T16:26:23.310Z,25.06
2018-08-24T16:28:52.418Z,25.07
2018-08-24T16:31:21.138Z,24.89
2018-08-24T16:33:49.813Z,24.79
2018-08-24T16:36:18.388Z,24.69
2018-08-24T16:38:46.988Z,24.58
2018-08-24T16:41:15.512Z,24.58
2018-08-24T16:43:44.180Z,24.51
2018-08-24T16:46:12.740Z,24.47
2018-08-24T16:48:41.370Z,24.17
2018-08-24T16:51:10.012Z,24.23
2018-08-24T16:53:38.540Z,24.19
2018-08-24T16:56:07.284Z,24.11
2018-08-24T16:58:35.894Z,24.10
2018-08-24T17:01:04.857Z,24.10
2018-08-24T17:03:33.449Z,24.11
2018-08-24T17:06:01.988Z,24.12
2018-08-24T17:08:30.659Z,24.15
2018-08-24T17:10:59.433Z,24.13
2018-08-24T17:13:27.972Z,24.04
2018-08-24T17:15:56.541Z,24.04
2018-08-24T17:18:25.095Z,23.98
2018-08-24T17:20:53.755Z,23.95
2018-08-24T17:23:23.216Z,23.86
2018-08-24T17:25:51.763Z,23.75
2018-08-24T17:28:20.340Z,23.71
2018-08-24T17:30:48.941Z,23.70
2018-08-24T17:33:17.501Z,23.63
2018-08-24T17:35:46.141Z,23.60
2018-08-24T17:38:14.706Z,23.58
2018-08-24T17:40:43.258Z,23.61
2018-08-24T17:43:11.799Z,23.60
2018-08-24T17:45:40.324Z,23.58
2018-08-24T17:48:09.094Z,23.51
2018-08-24T17:50:37.924Z,23.44
2018-08-24T17:53:06.535Z,23.47
2018-08-24T17:55:35.092Z,23.45
2018-08-24T17:58:03.652Z,23.36
2018-08-24T18:00:32.280Z,23.22
2018-08-24T18:03:00.828Z,23.17
2018-08-24T18:05:29.593Z,23.25
2018-08-24T18:07:58.170Z,23.27
2018-08-24T18:10:26.713Z,23.19
2018-08-24T18:12:55.263Z,23.17
2018-08-24T18:15:23.851Z,23.23
2018-08-24T18:17:52.437Z,23.26
2018-08-24T18:20:20.988Z,23.28
2018-08-24T18:22:49.575Z,23.23
2018-08-24T18:25:18.163Z,23.20
2018-08-24T18:27:46.816Z,23.21
2018-08-24T18:30:15.590Z,23.25
2018-08-24T18:32:44.077Z,23.22
2018-08-24T18:35:12.664Z,23.22
2018-08-24T18:37:41.208Z,23.15
2018-08-24T18:40:09.766Z,23.12
2018-08-24T18:42:38.363Z,23.13
2018-08-24T18:45:06.994Z,23.16
2018-08-24T18:47:36.005Z,23.03
2018-08-24T18:50:04.672Z,22.94
2018-08-24T18:52:33.232Z,22.91
2018-08-24T18:55:01.845Z,22.94
2018-08-24T18:57:30.411Z,22.91
2018-08-24T18:59:58.983Z,22.90
2018-08-24T19:02:27.529Z,22.83
2018-08-24T19:04:56.069Z,22.83
2018-08-24T19:07:24.758Z,22.82
2018-08-24T19:09:53.441Z,22.36
2018-08-24T19:12:27.651Z,21.83
2018-08-24T19:14:57.115Z,21.57
2018-08-24T19:17:30.748Z,21.80
2018-08-24T19:20:04.493Z,21.74
2018-08-24T19:22:33.067Z,21.46
2018-08-24T19:25:01.784Z,21.53
2018-08-24T19:27:35.519Z,21.66
2018-08-24T19:30:09.247Z,21.49
2018-08-24T19:32:38.115Z,21.37
2018-08-24T19:35:06.679Z,21.49
2018-08-24T19:37:35.361Z,21.65
2018-08-24T19:40:09.136Z,21.72
2018-08-24T19:42:37.699Z,21.75
2018-08-24T19:45:06.389Z,21.83
2018-08-24T19:47:40.686Z,21.91
2018-08-24T19:50:09.244Z,21.94
2018-08-24T19:52:37.814Z,21.95
2018-08-24T19:55:06.524Z,21.95
2018-08-24T19:57:40.191Z,21.90
2018-08-24T20:00:08.808Z,21.90
2018-08-24T20:02:38.297Z,21.91
2018-08-24T20:05:07.150Z,21.91
2018-08-24T20:07:41.016Z,21.91
2018-08-24T20:10:11.083Z,21.79
2018-08-24T20:12:40.528Z,21.79
2018-08-24T20:15:14.368Z,21.85
2018-08-24T20:17:42.994Z,21.88
2018-08-24T20:20:11.555Z,21.89
2018-08-24T20:22:40.130Z,21.80
2018-08-24T20:25:08.710Z,21.59
2018-08-24T20:27:37.316Z,21.60
2018-08-24T20:30:06.192Z,21.64
2018-08-24T20:32:35.496Z,21.65
2018-08-24T20:35:04.089Z,21.67
2018-08-24T20:37:32.652Z,21.69
2018-08-24T20:40:01.312Z,21.71
2018-08-24T20:42:29.811Z,21.64
2018-08-24T20:44:58.375Z,21.49
2018-08-24T20:47:27.345Z,21.32
2018-08-24T20:49:55.845Z,21.24
2018-08-24T20:52:24.399Z,21.22
2018-08-24T20:54:52.981Z,21.15
2018-08-24T20:57:21.567Z,21.08
2018-08-24T20:59:50.343Z,21.00
2018-08-24T21:02:18.961Z,21.01
2018-08-24T21:04:47.544Z,20.90
2018-08-24T21:07:16.109Z,20.95
2018-08-24T21:09:44.653Z,20.85
2018-08-24T21:12:13.422Z,20.80
2018-08-24T21:14:42.040Z,20.83
2018-08-24T21:17:10.740Z,20.78
2018-08-24T21:19:39.320Z,20.70
2018-08-24T21:22:07.872Z,20.73
2018-08-24T21:24:36.497Z,20.69
2018-08-24T21:27:05.367Z,20.67
2018-08-24T21:29:34.305Z,20.68
2018-08-24T21:32:03.154Z,20.67
2018-08-24T21:34:31.696Z,20.70
2018-08-24T21:37:01.352Z,20.56
2018-08-24T21:39:30.801Z,20.58
2018-08-24T21:41:59.609Z,20.50
2018-08-24T21:44:28.219Z,20.52
2018-08-24T21:46:56.808Z,20.56
2018-08-24T21:49:25.356Z,20.56
2018-08-24T21:51:53.976Z,20.50
2018-08-24T21:54:22.520Z,20.53
2018-08-24T21:56:51.101Z,20.55
2018-08-24T21:59:19.702Z,20.53
2018-08-24T22:01:48.305Z,20.55
2018-08-24T22:04:16.941Z,20.57
2018-08-24T22:06:46.150Z,20.55
2018-08-24T22:09:14.799Z,20.55
2018-08-24T22:11:43.674Z,20.54
2018-08-24T22:14:12.280Z,20.54
2018-08-24T22:16:41.138Z,20.45
2018-08-24T22:22:13.489Z,20.38
2018-08-24T22:24:42.080Z,20.22
2018-08-24T22:27:10.691Z,20.13
2018-08-24T22:29:39.291Z,20.18
2018-08-24T22:32:07.883Z,20.23
2018-08-24T22:34:36.425Z,20.17
2018-08-24T22:37:05.028Z,20.04
2018-08-24T22:39:33.735Z,19.97
2018-08-24T22:42:02.324Z,19.89
2018-08-24T22:44:30.948Z,19.71
2018-08-24T22:46:59.579Z,19.70
2018-08-24T22:49:28.183Z,19.68
2018-08-24T22:51:56.758Z,19.66
2018-08-24T22:54:25.356Z,19.63
2018-08-24T22:56:54.000Z,19.43
2018-08-24T22:59:22.655Z,19.46
2018-08-24T23:01:51.236Z,19.46
2018-08-24T23:04:19.808Z,19.51
2018-08-24T23:06:48.412Z,19.49
2018-08-24T23:09:17.202Z,19.56
2018-08-24T23:11:45.810Z,19.57
2018-08-24T23:14:14.407Z,19.56
2018-08-24T23:16:42.955Z,19.60
2018-08-24T23:19:11.552Z,19.61
2018-08-24T23:21:40.096Z,19.58
2018-08-24T23:24:08.664Z,19.54
2018-08-24T23:26:37.227Z,19.59
2018-08-24T23:29:06.223Z,19.57
2018-08-24T23:31:34.794Z,19.57
2018-08-24T23:34:03.385Z,19.51
2018-08-24T23:36:31.938Z,19.49
2018-08-24T23:39:00.455Z,19.49
2018-08-24T23:41:29.047Z,19.51
2018-08-24T23:43:57.729Z,19.53
2018-08-24T23:46:26.325Z,19.55
2018-08-24T23:48:55.699Z,19.57
2018-08-24T23:51:24.364Z,19.56
2018-08-24T23:53:52.926Z,19.60
2018-08-24T23:56:21.477Z,19.55
2018-08-24T23:58:50.034Z,19.58
